AirNav   Phillips 66 Aviation Fuel
 
 1686 users online  

I61 Hagerstown Airport
Hagerstown, Indiana, USA

GOING TO HAGERSTOWN?


FAA INFORMATION EFFECTIVE 12 OCTOBER 2017

Location

FAA Identifier: I61
Lat/Long: 39-53-21.0000N / 085-09-48.0000W
39-53.350000N / 085-09.800000W
39.8891667 / -85.1633333
(estimated)
Elevation: 1000 ft. / 305 m (estimated)
Variation: 03W (1985)
From city: 1 mile S of HAGERSTOWN, IN
Time zone: UTC -4 (UTC -5 during Standard Time)
Zip code: 47346

Airport Operations

Airport use: Open to the public
Activation date: 05/1957
Control tower: no
ARTCC: INDIANAPOLIS CENTER
FSS: TERRE HAUTE FLIGHT SERVICE STATION
NOTAMs facility: HUF (NOTAM-D service available)
Attendance: UNATNDD
CALL 765-489-6171 FOR ASSISTANCE.
Wind indicator: lighted
Segmented circle: no
Lights: ACTVT LIRL RY 02/20 - CTAF.

Airport Communications

CTAF/UNICOM: 123.0
WX AWOS-3 at CEV (12 nm S): 118.325 (765-827-6649)
WX AWOS-3 at RID (17 nm SE): 121.225 (765-983-1903)

Nearby radio navigation aids

VOR radial/distance  VOR name  Freq  Var
RIDr301/17.0RICHMOND VORTAC110.6003W
MIEr156/23.4MUNCIE VOR/DME114.4003W
SHBr062/34.2SHELBYVILLE VOR/DME112.0001E
DQNr259/36.1DAYTON VOR/DME114.5001W

 
NDB name  Hdg/Dist  Freq  Var  ID
PNTHR351/6.922704WSQ ... --.-
NEW CASTLE088/7.238502WUWL ..- .-- .-..
BATESVILLE013/32.925405WHLB .... .-.. -...

Airport Services

Parking: tiedowns
Airframe service: NONE
Powerplant service: NONE
Bottled oxygen: NONE
Bulk oxygen: NONE

Runway Information

Runway 2/20

Dimensions: 4000 x 200 ft. / 1219 x 61 m
Surface: turf, in good condition
Runway edge lights: low intensity
RUNWAY 2  RUNWAY 20
Latitude: 39-53.031000N39-53.650000N
Longitude: 085-09.996167W085-09.703667W
Elevation: 990.0 ft.990.0 ft.
Traffic pattern: leftleft
Displaced threshold: 200 ft.
02/20 DSPLCD THLDS MKD BY LGT FIXTURES, & YELLOW TIRES.
1070 ft.
Runway end identifier lights: no
Obstructions: 36 ft. trees, 438 ft. from runway, 110 ft. right of centerline, 12:1 slope to clear
RY 02 APCH RATIO 24:1 AT DSPLCD THLD; 19 FT TREES 638 FT FM RY END.
70 ft. trees, 200 ft. from runway, 130 ft. right of centerline, 3:1 slope to clear
RY 20 APCH SLOPE 24:1 AT DSPLCD THLD.

Airport Ownership and Management from official FAA records

Ownership: Publicly-owned
Owner: TOWN OF HAGERSTOWN
49 E COLLEGE
HAGERSTOWN, IN 47346
Phone 765-489-6171
Manager: MARVIN STOHLER
49 E. COLLEGE STREET
HAGERSTOWN, IN 47346
Phone 765-489-6171

Airport Operational Statistics

Aircraft based on the field: 9
Single engine airplanes: 8
Ultralights: 1
    
Aircraft operations: avg 39/week *
63% transient general aviation
37% local general aviation
* for 12-month period ending 31 December 2014

Instrument Procedures

There are no published instrument procedures at I61.

Some nearby airports with instrument procedures:

KUWL - New Castle-Henry County Municipal Airport (8 nm W)
KCEV - Mettel Field Airport (12 nm S)
KRID - Richmond Municipal Airport (17 nm SE)
I22 - Randolph County Airport (20 nm NE)
KMIE - Delaware County Regional Airport (24 nm NW)
 
Loc | Ops | Rwys | IFR | FBO | Links
Com | Nav | Svcs | Stats | Notes


 
Area around I61 (Hagerstown Airport)
 
Road maps at: MapQuest Bing Google
 
Aerial photo
WARNING: Photo may not be current or correct
Aerial photo of I61 (Hagerstown Airport)
Photo by by Wally Dilling
Photo taken 29-May-2006
north view

Do you have a better or more recent aerial photo of Hagerstown Airport that you would like to share? If so, please send us your photo.

 
Sectional chart

 
Airport distance calculator
Flying to Hagerstown Airport? Find the distance to fly.

From to I61

Sunrise and sunset
Times for 23-Oct-2017
 Local
(UTC-4)
 Zulu
(UTC)
Morning civil twilight07:3311:33
Sunrise08:0112:01
Sunset18:4922:49
Evening civil twilight19:1723:17

Current date and time
Zulu (UTC)  23-Oct-2017 19:25:11
Local (UTC-4)  23-Oct-2017 15:25:11
 
METAR
KRID 
17nm SE 
231855Z AUTO 17009KT 10SM -RA OVC070 16/15 A2969 RMK AO2
KMIE 
23nm NW 
231853Z 21011G21KT 10SM FEW022 FEW065 OVC090 18/13 A2963 RMK AO2 SLP023 T01830133
KAID 
25nm NW 
231847Z 20015G20KT 10-RA SCT017 OVC065 17/14 A2965
KHLB 
33nm S 
231855Z AUTO 21006G12KT 10SM SCT013 BKN020 OVC027 15/15 A2971 RMK A01
TAF
KDAY 
44nm E 
231720Z 2318/2418 17012KT P6SM -SHRA OVC025 TEMPO 2319/2321 4SM SHRA BKN025 FM232100 20012G20KT P6SM VCSH OVC035 FM232300 25012KT P6SM VCSH OVC015 FM240600 21010KT P6SM VCSH BKN025 FM241200 24012KT P6SM BKN025 FM241600 25014G22KT P6SM FEW030 BKN040
NOTAMs
Click for the latest NOTAMs
NOTAMs are issued by the DoD/FAA and will open in a separate window not controlled by AirNav.

 

 
 

Would you like to see your business listed on this page?

 If your business provides an interesting product or service to pilots, flight crews, aircraft, or users of the Hagerstown Airport, you should consider listing it here.  To start the listing process, click on the button below
 
Add a business
 

Other Pages about Hagerstown Airport

Update a link
 
Copyright © AirNav, LLC. All rights reserved. Privacy Policy  Contact